Time;durP1;ratioP1;P1;durP2;ratioP2;P2;SDS_P1;SDS_P2;PMS_P1;PMS_P2;Temp;Humidity;BMP_temperature;BMP_pressure;BME280_temperature;BME280_humidity;BME280_pressure;Samples;Min_cycle;Max_cycle;Signal;HPM_P1;HPM_P2
2021/08/13 00:01:36;;;;;;;10.03;7.47;;;24.00;99.90;;;;;;6299365;28;20227;-64
2021/08/13 00:04:40;;;;;;;8.10;7.07;;;24.00;99.90;;;;;;6298162;28;20235;-64
2021/08/13 00:07:43;;;;;;;8.10;7.40;;;23.90;99.90;;;;;;6299145;28;20223;-64
2021/08/13 00:10:49;;;;;;;7.80;7.10;;;23.90;99.90;;;;;;6298718;28;20226;-64
2021/08/13 00:13:52;;;;;;;9.03;8.23;;;23.90;99.90;;;;;;6299270;28;20235;-63
2021/08/13 00:16:55;;;;;;;7.87;7.07;;;23.90;99.90;;;;;;6298501;28;20230;-64
2021/08/13 00:19:58;;;;;;;8.70;7.90;;;23.90;99.90;;;;;;6299200;28;20231;-64
2021/08/13 00:23:01;;;;;;;7.87;7.07;;;23.90;99.90;;;;;;6310977;28;20222;-64
2021/08/13 00:26:06;;;;;;;9.07;7.47;;;23.80;99.90;;;;;;6323958;28;20687;-64
2021/08/13 00:29:09;;;;;;;10.40;7.43;;;23.70;99.90;;;;;;6329531;28;20217;-64
2021/08/13 00:32:12;;;;;;;8.60;7.90;;;23.70;99.90;;;;;;6349290;28;20713;-64
2021/08/13 00:35:15;;;;;;;9.53;7.77;;;23.70;99.90;;;;;;6349094;28;20236;-64
2021/08/13 00:38:18;;;;;;;7.93;7.20;;;23.70;99.90;;;;;;6348706;28;20350;-64
2021/08/13 00:41:23;;;;;;;8.70;7.90;;;23.60;99.90;;;;;;6349212;28;20232;-63
2021/08/13 00:44:28;;;;;;;8.80;7.67;;;23.60;99.90;;;;;;6348681;28;20229;-64
2021/08/13 00:47:31;;;;;;;7.73;6.80;;;23.60;99.90;;;;;;6348783;28;20294;-64
2021/08/13 00:50:34;;;;;;;12.87;8.07;;;23.50;99.90;;;;;;6348615;28;20381;-63
2021/08/13 00:53:38;;;;;;;7.50;6.90;;;23.50;99.90;;;;;;6348805;28;20511;-64
2021/08/13 00:56:42;;;;;;;9.60;8.40;;;23.50;99.90;;;;;;6339727;28;20245;-64
2021/08/13 00:59:46;;;;;;;8.03;7.17;;;23.40;99.90;;;;;;6324167;28;20198;-64
2021/08/13 01:02:50;;;;;;;7.97;7.03;;;23.40;99.90;;;;;;6338784;28;20217;-64
2021/08/13 01:05:54;;;;;;;7.73;7.10;;;23.40;99.90;;;;;;6349226;28;20232;-63
2021/08/13 01:08:57;;;;;;;8.50;7.60;;;23.30;99.90;;;;;;6348136;28;20601;-63
2021/08/13 01:12:05;;;;;;;7.47;6.87;;;23.30;99.90;;;;;;6349057;28;20225;-63
2021/08/13 01:15:11;;;;;;;8.63;7.73;;;23.30;99.90;;;;;;6350274;28;20225;-63
2021/08/13 01:18:20;;;;;;;8.23;7.53;;;23.30;99.90;;;;;;6353498;28;20547;-64
2021/08/13 01:21:42;;;;;;;7.90;7.20;;;23.30;99.90;;;;;;6344350;28;20538;-64
2021/08/13 01:24:48;;;;;;;7.97;7.27;;;23.30;99.90;;;;;;6330990;28;20295;-63
2021/08/13 01:27:55;;;;;;;7.90;7.20;;;23.20;99.90;;;;;;6327620;28;20238;-63
2021/08/13 01:31:01;;;;;;;7.50;6.80;;;23.20;99.90;;;;;;6349554;28;20221;-64
2021/08/13 01:34:07;;;;;;;8.00;7.30;;;23.20;99.90;;;;;;6352773;27;20682;-64
2021/08/13 01:37:11;;;;;;;7.63;7.03;;;23.20;99.90;;;;;;6339407;28;20707;-64
2021/08/13 01:40:17;;;;;;;7.83;7.03;;;23.10;99.90;;;;;;6325494;28;20690;-64
2021/08/13 01:43:22;;;;;;;8.50;7.80;;;23.10;99.90;;;;;;6325529;28;20675;-64
2021/08/13 01:46:26;;;;;;;10.80;7.10;;;23.10;99.90;;;;;;6325357;28;20238;-64
2021/08/13 01:49:32;;;;;;;7.93;7.33;;;23.10;99.90;;;;;;6325427;28;20229;-66
2021/08/13 01:52:37;;;;;;;8.17;7.47;;;23.00;99.90;;;;;;6325265;28;20226;-66
2021/08/13 01:55:41;;;;;;;8.87;7.40;;;22.90;99.90;;;;;;6326296;28;20230;-66
2021/08/13 01:58:45;;;;;;;7.90;7.10;;;22.90;99.90;;;;;;6326301;28;20241;-66
2021/08/13 02:01:49;;;;;;;9.33;8.00;;;22.90;99.90;;;;;;6327133;28;20232;-65
2021/08/13 02:04:54;;;;;;;8.53;7.63;;;22.90;99.90;;;;;;6324960;28;20244;-64
2021/08/13 02:08:00;;;;;;;9.57;8.77;;;22.90;99.90;;;;;;6326401;28;20691;-64
2021/08/13 02:11:05;;;;;;;7.37;6.77;;;22.90;99.90;;;;;;6327088;28;20350;-65
2021/08/13 02:14:08;;;;;;;7.60;6.93;;;22.80;99.90;;;;;;6326672;28;20237;-64
2021/08/13 02:17:15;;;;;;;9.30;8.17;;;22.80;99.90;;;;;;6326630;28;20237;-66
2021/08/13 02:20:22;;;;;;;7.63;6.93;;;22.80;99.90;;;;;;6325599;28;20241;-64
2021/08/13 02:23:25;;;;;;;7.27;6.67;;;22.80;99.90;;;;;;6326171;28;20578;-64
2021/08/13 02:26:29;;;;;;;8.60;7.13;;;22.80;99.90;;;;;;6320730;28;20237;-65
2021/08/13 02:29:32;;;;;;;8.60;7.80;;;22.80;99.90;;;;;;6326354;28;20225;-64
2021/08/13 02:32:36;;;;;;;9.87;8.97;;;22.70;99.90;;;;;;6326566;28;20241;-66
2021/08/13 02:35:43;;;;;;;8.40;7.70;;;22.70;99.90;;;;;;6326643;28;20206;-63
2021/08/13 02:38:55;;;;;;;7.80;7.00;;;22.70;99.90;;;;;;6325772;28;20583;-64
2021/08/13 02:42:02;;;;;;;8.17;7.47;;;22.70;99.90;;;;;;6326718;28;20233;-64
2021/08/13 02:45:06;;;;;;;8.90;8.10;;;22.60;99.90;;;;;;6325997;28;20221;-65
2021/08/13 02:48:09;;;;;;;8.70;7.80;;;22.60;99.90;;;;;;6326173;28;20295;-65
2021/08/13 02:51:17;;;;;;;8.73;7.93;;;22.60;99.90;;;;;;6325661;28;20698;-64
2021/08/13 02:54:25;;;;;;;8.57;7.80;;;22.50;99.90;;;;;;6326227;28;20286;-64
2021/08/13 02:57:33;;;;;;;8.73;8.03;;;22.50;99.90;;;;;;6325809;28;20233;-64
2021/08/13 03:00:40;;;;;;;9.60;8.80;;;22.50;99.90;;;;;;6326048;28;20248;-64
2021/08/13 03:03:44;;;;;;;9.17;8.43;;;22.40;99.90;;;;;;6325891;28;20264;-65
2021/08/13 03:06:51;;;;;;;9.70;8.27;;;22.40;99.90;;;;;;6325417;28;20715;-64
2021/08/13 03:09:54;;;;;;;9.20;8.40;;;22.40;99.90;;;;;;6325943;28;20237;-63
2021/08/13 03:12:57;;;;;;;8.80;7.93;;;22.30;99.90;;;;;;6325547;28;20222;-65
2021/08/13 03:16:02;;;;;;;11.70;9.67;;;22.30;99.90;;;;;;6325515;28;20602;-64
2021/08/13 03:19:06;;;;;;;8.83;8.03;;;22.30;99.90;;;;;;6325406;28;20245;-64
2021/08/13 03:22:11;;;;;;;8.90;8.10;;;22.30;99.90;;;;;;6325324;28;20230;-65
2021/08/13 03:25:16;;;;;;;10.93;8.63;;;22.20;99.90;;;;;;6324944;28;20226;-64
2021/08/13 03:28:19;;;;;;;8.07;7.47;;;22.20;99.90;;;;;;6320310;28;20589;-64
2021/08/13 03:31:36;;;;;;;8.80;8.10;;;22.20;99.90;;;;;;6325212;28;20237;-64
2021/08/13 03:34:40;;;;;;;9.10;8.30;;;22.20;99.90;;;;;;6325181;28;20231;-64
2021/08/13 03:37:44;;;;;;;9.57;7.17;;;22.20;99.90;;;;;;6324415;28;20683;-63
2021/08/13 03:40:47;;;;;;;9.00;8.20;;;22.10;99.90;;;;;;6324975;28;20252;-64
2021/08/13 03:43:51;;;;;;;8.53;7.73;;;22.20;99.90;;;;;;6324674;28;20238;-64
2021/08/13 03:46:54;;;;;;;8.40;7.70;;;22.10;99.90;;;;;;6324941;28;20696;-64
2021/08/13 03:49:57;;;;;;;8.77;7.87;;;22.20;99.90;;;;;;6324357;28;20687;-65
2021/08/13 03:53:01;;;;;;;8.90;8.00;;;22.20;99.90;;;;;;6324445;28;20325;-66
2021/08/13 03:56:05;;;;;;;8.97;8.07;;;22.20;99.90;;;;;;6324283;28;20238;-64
2021/08/13 03:59:08;;;;;;;9.13;8.27;;;22.10;99.90;;;;;;6324696;28;20284;-66
2021/08/13 04:02:11;;;;;;;9.07;8.13;;;22.20;99.90;;;;;;6324497;28;20226;-66
2021/08/13 04:05:15;;;;;;;7.80;7.20;;;22.20;99.90;;;;;;6324246;28;20222;-63
2021/08/13 04:08:19;;;;;;;8.37;7.63;;;22.10;99.90;;;;;;6324156;28;20241;-64
2021/08/13 04:11:22;;;;;;;10.10;9.07;;;22.10;99.90;;;;;;6324110;28;20226;-64
2021/08/13 04:14:25;;;;;;;9.73;8.73;;;22.10;99.90;;;;;;6324289;28;20230;-65
2021/08/13 04:17:29;;;;;;;10.27;8.10;;;22.00;99.90;;;;;;6323914;28;20240;-64
2021/08/13 04:20:32;;;;;;;9.73;8.83;;;22.00;99.90;;;;;;6324265;28;20237;-64
2021/08/13 04:23:36;;;;;;;8.60;7.90;;;21.90;99.90;;;;;;6323792;28;20218;-62
2021/08/13 04:26:39;;;;;;;8.23;7.43;;;22.00;99.90;;;;;;6324096;28;20226;-63
2021/08/13 04:29:43;;;;;;;7.93;7.23;;;22.00;99.90;;;;;;6319672;28;20312;-64
2021/08/13 04:32:46;;;;;;;8.30;7.50;;;22.10;99.90;;;;;;6324357;28;20213;-64
2021/08/13 04:35:50;;;;;;;8.07;7.47;;;22.10;99.90;;;;;;6323734;28;20526;-64
2021/08/13 04:38:54;;;;;;;8.70;7.90;;;22.10;99.90;;;;;;6324096;28;20225;-64
2021/08/13 04:41:57;;;;;;;10.40;8.57;;;22.20;99.90;;;;;;6324238;28;20233;-64
2021/08/13 04:45:00;;;;;;;9.50;8.50;;;22.30;99.90;;;;;;6324194;28;20226;-63
2021/08/13 04:48:11;;;;;;;8.93;8.13;;;22.30;99.90;;;;;;6323752;28;20549;-64
2021/08/13 04:51:15;;;;;;;9.33;8.43;;;22.30;99.90;;;;;;6327130;28;20542;-64
2021/08/13 04:54:19;;;;;;;10.30;9.10;;;22.40;99.90;;;;;;6328861;28;20241;-64
2021/08/13 04:57:22;;;;;;;8.13;7.43;;;22.50;99.90;;;;;;6328222;28;20602;-64
2021/08/13 05:00:25;;;;;;;9.80;8.50;;;22.60;99.90;;;;;;6329320;28;20275;-64
2021/08/13 05:03:29;;;;;;;9.47;8.60;;;22.70;99.90;;;;;;6328110;28;20545;-63
2021/08/13 05:06:32;;;;;;;8.93;8.10;;;22.70;99.90;;;;;;6328706;28;20263;-64
2021/08/13 05:09:36;;;;;;;9.23;8.33;;;22.90;99.90;;;;;;6328382;28;20234;-63
2021/08/13 05:12:40;;;;;;;11.10;10.03;;;23.00;99.90;;;;;;6328987;28;20230;-63
2021/08/13 05:15:43;;;;;;;9.07;8.20;;;23.10;99.90;;;;;;6328479;28;20230;-64
2021/08/13 05:18:46;;;;;;;11.93;9.63;;;23.20;99.90;;;;;;6328188;28;20237;-63
2021/08/13 05:21:49;;;;;;;11.33;8.53;;;23.30;99.90;;;;;;6327785;28;20249;-64
2021/08/13 05:24:54;;;;;;;9.33;8.53;;;23.30;99.90;;;;;;6328458;28;20226;-63
2021/08/13 05:27:57;;;;;;;9.83;8.97;;;23.40;99.90;;;;;;6327991;28;20238;-63
2021/08/13 05:31:00;;;;;;;11.00;9.70;;;23.50;99.90;;;;;;6327673;28;20604;-65
2021/08/13 05:34:03;;;;;;;10.40;9.00;;;23.60;99.90;;;;;;6328168;28;20222;-64
2021/08/13 05:37:06;;;;;;;10.20;9.13;;;23.80;99.90;;;;;;6327401;28;20579;-63
2021/08/13 05:40:12;;;;;;;12.20;11.13;;;24.20;99.90;;;;;;6328084;28;20230;-64
2021/08/13 05:43:15;;;;;;;10.93;10.03;;;24.50;99.90;;;;;;6327572;28;20240;-64
2021/08/13 05:46:18;;;;;;;13.50;10.67;;;24.90;99.90;;;;;;6327739;28;20234;-63
2021/08/13 05:49:21;;;;;;;12.37;11.27;;;25.20;99.90;;;;;;6327284;28;20222;-65
2021/08/13 05:52:25;;;;;;;11.80;10.60;;;25.70;99.90;;;;;;6327541;28;20237;-64
2021/08/13 05:55:29;;;;;;;11.80;10.70;;;26.30;99.90;;;;;;6327289;28;20225;-65
2021/08/13 05:58:32;;;;;;;12.27;11.10;;;26.60;99.00;;;;;;6327147;28;20240;-65
2021/08/13 06:01:35;;;;;;;13.40;11.27;;;26.60;98.50;;;;;;6325807;28;20237;-64
2021/08/13 06:04:41;;;;;;;13.60;12.27;;;26.40;98.60;;;;;;6327505;28;20226;-65
2021/08/13 06:07:44;;;;;;;12.83;11.73;;;26.40;98.40;;;;;;6326560;28;20630;-64
2021/08/13 06:10:48;;;;;;;12.87;11.70;;;26.80;98.40;;;;;;6327283;28;20225;-65
2021/08/13 06:13:52;;;;;;;13.70;12.30;;;27.20;97.50;;;;;;6326845;28;20229;-64
2021/08/13 06:16:55;;;;;;;12.30;11.30;;;27.90;96.30;;;;;;6326559;28;20237;-64
2021/08/13 06:19:58;;;;;;;16.13;12.30;;;28.30;95.10;;;;;;6326849;28;20320;-64
2021/08/13 06:23:01;;;;;;;13.70;11.53;;;28.30;94.50;;;;;;6326379;28;20244;-65
2021/08/13 06:26:06;;;;;;;13.10;12.00;;;28.30;94.50;;;;;;6326769;28;20240;-65
2021/08/13 06:29:12;;;;;;;13.40;12.07;;;28.80;94.10;;;;;;6326430;28;20229;-65
2021/08/13 06:32:15;;;;;;;13.10;11.73;;;29.20;92.70;;;;;;6326816;28;20229;-66
2021/08/13 06:35:18;;;;;;;13.67;12.37;;;29.70;91.90;;;;;;6326230;28;20711;-65
2021/08/13 06:38:22;;;;;;;11.77;10.77;;;30.10;90.90;;;;;;6326284;28;20234;-65
2021/08/13 06:41:26;;;;;;;13.40;12.20;;;30.60;90.30;;;;;;6317181;28;20612;-65
2021/08/13 06:44:29;;;;;;;14.02;12.73;;;31.30;87.80;;;;;;6326187;28;20230;-65
2021/08/13 06:47:32;;;;;;;12.38;10.95;;;32.10;84.60;;;;;;6326105;28;20240;-65
2021/08/13 06:50:36;;;;;;;11.77;10.77;;;33.00;79.40;;;;;;6327459;28;20650;-66
2021/08/13 06:53:39;;;;;;;12.98;11.73;;;33.30;77.20;;;;;;6326654;28;20218;-65
2021/08/13 06:56:43;;;;;;;12.40;11.15;;;33.90;74.50;;;;;;6328558;28;20228;-65
2021/08/13 06:59:46;;;;;;;12.85;11.55;;;34.20;72.30;;;;;;6338113;28;20197;-65
2021/08/13 07:02:50;;;;;;;12.93;11.82;;;34.90;68.50;;;;;;6331822;28;20202;-66
2021/08/13 07:05:54;;;;;;;12.48;11.18;;;34.90;65.70;;;;;;6328583;28;20266;-67
2021/08/13 07:08:57;;;;;;;11.75;10.75;;;34.70;65.90;;;;;;6336966;28;20619;-67
2021/08/13 07:12:01;;;;;;;11.82;10.93;;;35.90;63.90;;;;;;6335645;28;20220;-67
2021/08/13 07:15:06;;;;;;;12.02;11.00;;;37.30;59.30;;;;;;6337578;28;20221;-67
2021/08/13 07:18:09;;;;;;;11.93;10.77;;;38.20;56.10;;;;;;6337442;28;20221;-68
2021/08/13 07:21:12;;;;;;;13.00;11.70;;;37.50;55.30;;;;;;6336359;27;20251;-66
2021/08/13 07:24:19;;;;;;;12.40;11.10;;;36.50;56.80;;;;;;6338151;28;20580;-66
2021/08/13 07:27:23;;;;;;;12.68;11.48;;;35.80;58.00;;;;;;6334569;28;20237;-66
2021/08/13 07:30:27;;;;;;;10.88;10.05;;;35.10;58.90;;;;;;6337273;28;20232;-67
2021/08/13 07:33:30;;;;;;;11.88;10.70;;;34.80;59.80;;;;;;6337163;28;20236;-67
2021/08/13 07:36:33;;;;;;;12.80;11.43;;;34.50;60.10;;;;;;6350177;28;20577;-66
2021/08/13 07:39:36;;;;;;;12.82;11.63;;;35.70;59.10;;;;;;6348320;28;20225;-67
2021/08/13 07:42:41;;;;;;;12.68;11.63;;;37.40;55.40;;;;;;6320687;28;20244;-66
2021/08/13 07:45:44;;;;;;;12.80;11.60;;;39.10;52.50;;;;;;6324597;28;20248;-68
2021/08/13 07:48:48;;;;;;;13.25;12.05;;;40.70;49.30;;;;;;6324886;28;20236;-67
2021/08/13 07:51:51;;;;;;;12.90;11.55;;;40.60;48.20;;;;;;6322508;28;20659;-66
2021/08/13 07:54:54;;;;;;;11.98;10.98;;;39.60;48.90;;;;;;6324617;28;20229;-67
2021/08/13 07:57:58;;;;;;;12.55;11.30;;;39.70;49.50;;;;;;6323797;28;20710;-67
2021/08/13 08:01:02;;;;;;;13.52;12.30;;;41.30;47.20;;;;;;6324560;28;20237;-67
2021/08/13 08:04:06;;;;;;;12.38;11.27;;;43.00;45.10;;;;;;6324402;28;20221;-62
2021/08/13 08:07:16;;;;;;;12.88;11.35;;;44.20;42.40;;;;;;6323142;28;20242;-63
2021/08/13 08:10:19;;;;;;;11.70;10.80;;;44.60;40.80;;;;;;6323955;28;20222;-62
2021/08/13 08:13:24;;;;;;;11.20;10.10;;;44.10;40.50;;;;;;6324311;28;20229;-62
2021/08/13 08:16:27;;;;;;;12.10;10.85;;;44.20;40.10;;;;;;6299784;28;20249;-62
2021/08/13 08:19:30;;;;;;;12.65;10.88;;;44.90;39.10;;;;;;6298885;28;20575;-62
2021/08/13 08:22:34;;;;;;;12.23;9.65;;;45.20;37.80;;;;;;6298928;28;20606;-63
2021/08/13 08:25:37;;;;;;;14.27;11.45;;;45.80;37.50;;;;;;6297945;28;20238;-63
2021/08/13 08:28:45;;;;;;;13.18;11.82;;;46.40;35.90;;;;;;6325438;28;20225;-63
2021/08/13 08:31:48;;;;;;;12.07;10.82;;;46.60;35.00;;;;;;6328128;28;20264;-63
2021/08/13 08:34:51;;;;;;;12.35;11.18;;;47.40;34.40;;;;;;6336813;28;20219;-63
2021/08/13 08:37:56;;;;;;;12.70;11.60;;;48.20;32.90;;;;;;6335084;28;20232;-62
2021/08/13 08:41:03;;;;;;;14.93;10.65;;;48.10;32.70;;;;;;6327350;28;20579;-62
2021/08/13 08:44:08;;;;;;;11.60;10.60;;;48.20;32.60;;;;;;6323249;28;20694;-63
2021/08/13 08:47:12;;;;;;;11.98;10.25;;;47.90;33.40;;;;;;6323518;28;20301;-62
2021/08/13 08:50:15;;;;;;;11.45;10.55;;;48.40;32.80;;;;;;6323002;28;20232;-62
2021/08/13 08:53:23;;;;;;;10.73;9.73;;;48.80;31.60;;;;;;6323688;28;20237;-62
2021/08/13 08:56:28;;;;;;;11.93;11.05;;;48.80;31.80;;;;;;6323233;28;20248;-63
2021/08/13 08:59:33;;;;;;;10.70;9.80;;;48.40;31.70;;;;;;6323466;28;20661;-62
2021/08/13 09:02:36;;;;;;;12.30;11.10;;;47.60;32.20;;;;;;6323298;28;20614;-62
2021/08/13 09:05:40;;;;;;;12.27;10.00;;;46.80;32.80;;;;;;6323323;28;20673;-62
2021/08/13 09:08:43;;;;;;;12.02;10.88;;;46.00;33.50;;;;;;6319523;28;20546;-61
2021/08/13 09:11:47;;;;;;;11.68;10.52;;;45.20;34.10;;;;;;6322965;28;20671;-62
2021/08/13 09:14:51;;;;;;;11.02;9.95;;;44.40;35.50;;;;;;6312719;28;20547;-62
2021/08/13 09:18:16;;;;;;;11.65;10.55;;;43.50;36.80;;;;;;6297853;28;20229;-61
2021/08/13 09:21:21;;;;;;;11.57;10.00;;;42.20;39.20;;;;;;6298258;28;20218;-62
2021/08/13 09:24:24;;;;;;;12.50;10.73;;;41.30;40.10;;;;;;6298546;28;20230;-61
2021/08/13 09:27:30;;;;;;;11.85;10.75;;;40.60;41.10;;;;;;6297910;28;20656;-62
2021/08/13 09:30:34;;;;;;;11.52;10.52;;;40.10;42.10;;;;;;6298043;28;20666;-61
2021/08/13 09:33:38;;;;;;;11.48;10.57;;;39.30;43.50;;;;;;6298079;28;20613;-63
2021/08/13 09:36:54;;;;;;;11.60;10.68;;;38.70;44.70;;;;;;6299851;28;20587;-61
2021/08/13 09:39:59;;;;;;;13.63;12.00;;;37.90;46.70;;;;;;6302601;28;20711;-61
2021/08/13 09:43:03;;;;;;;12.40;11.20;;;37.50;47.60;;;;;;6302191;28;20233;-61
2021/08/13 09:46:08;;;;;;;12.32;11.23;;;37.30;47.70;;;;;;6302313;28;20230;-61
2021/08/13 09:49:16;;;;;;;12.10;10.88;;;36.90;48.50;;;;;;6302187;28;20234;-60
2021/08/13 09:52:21;;;;;;;12.20;10.98;;;36.50;49.00;;;;;;6292871;28;20660;-61
2021/08/13 09:55:28;;;;;;;12.27;11.23;;;36.20;49.40;;;;;;6301927;28;20241;-61
2021/08/13 09:58:32;;;;;;;12.90;11.63;;;36.00;50.70;;;;;;6301734;28;20295;-60
2021/08/13 10:01:38;;;;;;;13.50;11.63;;;35.70;51.60;;;;;;6301745;28;20226;-60
2021/08/13 10:04:42;;;;;;;12.98;11.73;;;35.70;51.90;;;;;;6302005;28;20274;-61
2021/08/13 10:07:50;;;;;;;12.77;11.75;;;35.70;52.10;;;;;;6307952;28;20244;-61
2021/08/13 10:10:53;;;;;;;13.02;11.75;;;35.70;52.10;;;;;;6326970;28;20694;-60
2021/08/13 10:13:57;;;;;;;12.10;10.98;;;35.80;52.00;;;;;;6323259;28;20221;-61
2021/08/13 10:17:11;;;;;;;12.00;10.82;;;35.70;51.40;;;;;;6301408;28;20234;-60
2021/08/13 10:20:14;;;;;;;10.93;10.02;;;35.70;52.00;;;;;;6301134;28;20238;-61
2021/08/13 10:23:17;;;;;;;11.57;10.60;;;35.80;52.30;;;;;;6330926;28;20689;-62
2021/08/13 10:26:21;;;;;;;11.98;10.80;;;35.70;52.20;;;;;;6337123;28;20228;-61
2021/08/13 10:29:25;;;;;;;11.75;10.68;;;35.50;52.80;;;;;;6346883;28;20225;-60
2021/08/13 10:32:31;;;;;;;11.48;10.55;;;35.10;53.00;;;;;;6348856;28;20508;-60
2021/08/13 10:35:40;;;;;;;11.63;10.73;;;35.00;53.50;;;;;;6332768;28;20240;-61
2021/08/13 10:38:46;;;;;;;11.05;10.15;;;35.00;53.30;;;;;;6326173;28;20221;-61
2021/08/13 10:41:53;;;;;;;11.63;10.63;;;35.00;53.50;;;;;;6326717;28;20186;-62
2021/08/13 10:45:04;;;;;;;10.82;9.82;;;35.00;53.00;;;;;;6317636;28;20628;-61
2021/08/13 10:48:13;;;;;;;11.43;9.30;;;35.10;52.70;;;;;;6306900;28;20229;-62
2021/08/13 10:51:26;;;;;;;12.10;11.00;;;35.10;53.00;;;;;;6325340;28;20243;-62
2021/08/13 10:54:40;;;;;;;11.95;10.75;;;34.90;53.40;;;;;;6292143;28;20226;-61
2021/08/13 10:57:58;;;;;;;11.57;10.68;;;34.90;53.40;;;;;;6300120;28;20238;-61
2021/08/13 11:01:09;;;;;;;11.23;10.25;;;35.10;53.40;;;;;;6307179;28;20558;-61
2021/08/13 11:04:14;;;;;;;11.15;10.20;;;35.20;53.30;;;;;;6324981;28;20282;-61
2021/08/13 11:07:56;;;;;;;11.38;10.43;;;35.10;52.20;;;;;;6321419;28;20225;-63
2021/08/13 11:10:59;;;;;;;9.95;9.10;;;34.80;52.80;;;;;;6314514;28;20258;-62
2021/08/13 11:14:23;;;;;;;11.45;10.35;;;34.80;52.10;;;;;;6324995;28;20213;-62
2021/08/13 11:17:35;;;;;;;11.48;10.48;;;35.10;52.10;;;;;;6323349;28;20240;-62
2021/08/13 11:20:44;;;;;;;10.07;9.10;;;35.50;52.10;;;;;;6299747;28;20276;-63
2021/08/13 11:23:58;;;;;;;10.82;9.73;;;35.50;52.20;;;;;;6299195;28;20206;-62
2021/08/13 11:27:12;;;;;;;10.43;9.52;;;35.40;52.40;;;;;;6299555;28;20650;-62
2021/08/13 11:30:50;;;;;;;11.07;10.30;;;35.10;53.20;;;;;;6299644;28;20610;-62
2021/08/13 11:33:54;;;;;;;11.05;10.20;;;35.20;54.90;;;;;;6297288;28;20693;-62
2021/08/13 11:36:58;;;;;;;11.32;10.48;;;35.30;53.30;;;;;;6299299;28;20587;-62
2021/08/13 11:40:05;;;;;;;10.85;9.93;;;35.40;53.70;;;;;;6299564;28;20233;-64
2021/08/13 11:43:10;;;;;;;13.60;10.52;;;35.60;54.40;;;;;;6301261;28;20300;-62
2021/08/13 11:46:24;;;;;;;10.35;9.30;;;35.70;53.20;;;;;;6323939;28;20240;-62
2021/08/13 11:49:28;;;;;;;11.10;10.13;;;35.50;53.10;;;;;;6324230;28;20240;-63
2021/08/13 11:52:35;;;;;;;11.80;9.30;;;35.30;52.40;;;;;;6314633;28;20249;-62
2021/08/13 11:55:41;;;;;;;10.77;9.98;;;35.20;52.30;;;;;;6299086;28;20553;-63
2021/08/13 11:58:44;;;;;;;8.50;7.90;;;35.20;53.50;;;;;;6315611;28;20230;-62
2021/08/13 12:01:52;;;;;;;9.98;9.18;;;35.30;50.80;;;;;;6335947;28;20228;-62
2021/08/13 12:05:04;;;;;;;10.63;9.73;;;35.70;50.80;;;;;;6346062;28;20257;-61
2021/08/13 12:08:13;;;;;;;9.60;8.82;;;36.00;52.50;;;;;;6323370;28;20233;-62
2021/08/13 12:11:22;;;;;;;9.55;8.68;;;36.00;52.00;;;;;;6323577;28;20229;-64
2021/08/13 12:14:25;;;;;;;10.38;9.50;;;36.20;51.40;;;;;;6316616;28;20214;-61
2021/08/13 12:17:28;;;;;;;10.02;9.23;;;35.90;51.50;;;;;;6298229;28;20315;-61
2021/08/13 12:20:33;;;;;;;9.80;9.10;;;35.60;52.50;;;;;;6298845;28;20233;-61
2021/08/13 12:23:37;;;;;;;10.23;9.48;;;35.70;52.60;;;;;;6319101;28;20232;-62
2021/08/13 12:26:41;;;;;;;9.95;9.13;;;35.50;53.20;;;;;;6335180;28;20224;-64
2021/08/13 12:29:46;;;;;;;10.68;9.88;;;35.30;53.80;;;;;;6299286;28;20214;-63
2021/08/13 12:32:51;;;;;;;10.70;9.73;;;35.40;54.50;;;;;;6328220;28;20213;-63
2021/08/13 12:35:54;;;;;;;11.13;10.18;;;35.60;53.70;;;;;;6337708;28;20201;-63
2021/08/13 12:38:59;;;;;;;9.13;8.50;;;35.50;52.90;;;;;;6344464;28;20278;-62
2021/08/13 12:42:03;;;;;;;10.07;9.38;;;35.40;52.50;;;;;;6323502;28;20225;-61
2021/08/13 12:45:10;;;;;;;9.60;8.80;;;35.50;52.40;;;;;;6323493;28;20221;-62
2021/08/13 12:48:13;;;;;;;10.05;9.25;;;35.50;53.30;;;;;;6323614;28;20241;-62
2021/08/13 12:51:27;;;;;;;10.45;9.57;;;35.40;52.80;;;;;;6323420;28;20225;-63
2021/08/13 12:54:35;;;;;;;11.52;10.55;;;35.00;54.10;;;;;;6323902;28;20229;-60
2021/08/13 12:57:38;;;;;;;12.85;11.15;;;34.50;55.60;;;;;;6322670;28;20233;-61
2021/08/13 13:00:41;;;;;;;10.43;9.73;;;34.00;57.10;;;;;;6322545;28;20229;-63
2021/08/13 13:04:05;;;;;;;11.52;10.52;;;33.70;58.20;;;;;;6311732;28;20241;-61
2021/08/13 13:07:10;;;;;;;11.27;10.38;;;33.30;58.80;;;;;;6320984;28;20234;-63
2021/08/13 13:10:17;;;;;;;11.93;10.98;;;32.90;60.20;;;;;;6321024;28;20236;-63
2021/08/13 13:13:20;;;;;;;12.15;11.05;;;32.60;62.10;;;;;;6325970;28;20220;-60
2021/08/13 13:16:23;;;;;;;11.55;10.65;;;32.20;63.20;;;;;;6327122;28;20682;-62
2021/08/13 13:19:27;;;;;;;11.02;9.82;;;31.90;64.90;;;;;;6326999;28;20240;-61
2021/08/13 13:22:30;;;;;;;12.13;11.02;;;31.70;66.40;;;;;;6326585;28;20233;-61
2021/08/13 13:25:42;;;;;;;13.30;12.10;;;31.60;67.00;;;;;;6326376;28;20251;-64
2021/08/13 13:28:45;;;;;;;11.95;11.05;;;31.70;70.50;;;;;;6324931;28;20683;-63
2021/08/13 13:31:48;;;;;;;13.20;12.20;;;31.50;71.80;;;;;;6327493;28;20252;-63
2021/08/13 13:34:56;;;;;;;11.85;10.73;;;31.50;73.70;;;;;;6327286;28;20225;-62
2021/08/13 13:38:00;;;;;;;11.90;10.93;;;31.50;73.90;;;;;;6333891;28;20598;-63
2021/08/13 13:41:06;;;;;;;11.70;10.68;;;31.50;74.50;;;;;;6327128;28;20709;-62
2021/08/13 13:44:09;;;;;;;8.50;7.50;;;31.70;72.70;;;;;;6326011;28;20554;-63
2021/08/13 13:47:12;;;;;;;8.40;7.60;;;31.80;68.60;;;;;;6311268;28;20298;-62
2021/08/13 13:50:16;;;;;;;7.78;7.18;;;31.90;64.80;;;;;;6348803;28;20220;-62
2021/08/13 13:53:19;;;;;;;9.32;6.53;;;32.10;63.60;;;;;;6332565;28;20218;-62
2021/08/13 13:56:24;;;;;;;8.00;7.20;;;32.30;60.00;;;;;;6326590;28;20683;-61
2021/08/13 13:59:27;;;;;;;7.00;6.35;;;32.50;60.40;;;;;;6326883;28;20229;-58
2021/08/13 14:02:30;;;;;;;8.07;6.00;;;32.90;59.00;;;;;;6301994;28;20226;-58
2021/08/13 14:05:33;;;;;;;6.65;6.05;;;33.30;58.20;;;;;;6300822;28;20691;-58
2021/08/13 14:08:36;;;;;;;7.10;6.45;;;33.70;56.20;;;;;;6296804;28;20226;-57
2021/08/13 14:11:41;;;;;;;7.43;6.72;;;34.00;55.40;;;;;;6301715;28;20222;-58
2021/08/13 14:14:44;;;;;;;8.20;7.53;;;34.10;55.10;;;;;;6310948;28;20663;-60
2021/08/13 14:17:48;;;;;;;7.90;7.10;;;34.30;55.40;;;;;;6316668;28;20327;-60
2021/08/13 14:20:52;;;;;;;11.80;7.43;;;34.40;55.80;;;;;;6300956;28;20206;-58
2021/08/13 14:23:55;;;;;;;7.88;7.18;;;34.40;56.30;;;;;;6300115;28;20636;-58
2021/08/13 14:27:00;;;;;;;7.45;6.75;;;34.30;56.40;;;;;;6299638;28;20222;-61
2021/08/13 14:30:04;;;;;;;9.18;8.20;;;33.90;57.60;;;;;;6299103;28;20683;-58
2021/08/13 14:33:07;;;;;;;8.82;8.00;;;33.40;59.80;;;;;;6298820;28;20563;-58
2021/08/13 14:36:10;;;;;;;9.02;8.30;;;32.90;62.20;;;;;;6299083;28;20222;-60
2021/08/13 14:39:14;;;;;;;8.18;7.38;;;32.60;64.40;;;;;;6304430;28;20232;-59
2021/08/13 14:42:19;;;;;;;7.72;7.05;;;32.20;63.50;;;;;;6324156;28;20229;-61
2021/08/13 14:45:22;;;;;;;9.95;6.80;;;31.70;62.80;;;;;;6323999;28;20239;-59
2021/08/13 14:48:25;;;;;;;8.50;7.30;;;31.10;62.50;;;;;;6324859;28;20229;-59
2021/08/13 14:51:28;;;;;;;7.20;6.60;;;30.80;64.30;;;;;;6325398;28;20236;-59
2021/08/13 14:54:31;;;;;;;7.18;6.47;;;30.50;66.20;;;;;;6325658;28;20233;-59
2021/08/13 14:57:36;;;;;;;7.00;6.50;;;30.60;67.70;;;;;;6325418;28;20229;-59
2021/08/13 15:00:39;;;;;;;7.20;6.60;;;30.50;68.90;;;;;;6325585;28;20315;-60
2021/08/13 15:03:42;;;;;;;8.90;7.63;;;30.50;69.80;;;;;;6325801;28;20225;-60
2021/08/13 15:06:45;;;;;;;7.85;7.15;;;30.60;70.50;;;;;;6325252;28;20244;-60
2021/08/13 15:09:48;;;;;;;8.07;7.47;;;30.60;70.50;;;;;;6316619;28;20233;-59
2021/08/13 15:12:53;;;;;;;8.15;7.55;;;30.50;70.70;;;;;;6325323;28;20244;-60
2021/08/13 15:15:56;;;;;;;7.25;6.60;;;30.40;71.20;;;;;;6305353;28;20234;-59
2021/08/13 15:18:59;;;;;;;7.70;7.00;;;30.30;72.00;;;;;;6299904;28;20291;-60
2021/08/13 15:22:05;;;;;;;7.60;7.00;;;30.20;72.50;;;;;;6299970;28;20234;-59
2021/08/13 15:25:09;;;;;;;7.90;7.30;;;30.00;73.30;;;;;;6300082;28;20279;-58
2021/08/13 15:28:15;;;;;;;7.23;6.53;;;29.90;73.90;;;;;;6299726;28;20230;-59
2021/08/13 15:31:19;;;;;;;8.23;7.53;;;30.00;74.30;;;;;;6299918;28;20230;-59
2021/08/13 15:34:23;;;;;;;8.40;7.70;;;30.00;73.80;;;;;;6298770;28;20686;-60
2021/08/13 15:37:26;;;;;;;7.67;7.07;;;29.70;74.00;;;;;;6299578;28;20246;-60
2021/08/13 15:40:29;;;;;;;7.90;7.13;;;29.60;75.00;;;;;;6315377;28;20233;-60
2021/08/13 15:43:33;;;;;;;7.60;6.90;;;29.60;75.50;;;;;;6324524;28;20701;-60
2021/08/13 15:46:37;;;;;;;7.40;6.90;;;29.50;75.50;;;;;;6324585;28;20225;-60
2021/08/13 15:49:40;;;;;;;7.20;6.60;;;29.10;76.30;;;;;;6324364;28;20312;-58
2021/08/13 15:52:43;;;;;;;8.43;6.97;;;29.10;76.80;;;;;;6324184;28;20244;-59